Time;durP1;ratioP1;P1;durP2;ratioP2;P2;SDS_P1;SDS_P2;PMS_P1;PMS_P2;Temp;Humidity;BMP_temperature;BMP_pressure;BME280_temperature;BME280_humidity;BME280_pressure;Samples;Min_cycle;Max_cycle;Signal;HPM_P1;HPM_P2
2023/04/16 00:01:40;;;;;;;5.80;5.20;;;5.80;99.90;;;;;;5029961;28;20427;-55
2023/04/16 00:04:06;;;;;;;5.05;4.40;;;5.70;99.90;;;;;;5029748;28;20033;-56
2023/04/16 00:06:31;;;;;;;4.75;4.32;;;5.80;99.90;;;;;;5029857;28;20128;-57
2023/04/16 00:08:57;;;;;;;5.20;4.70;;;5.70;99.90;;;;;;5030015;28;20025;-57
2023/04/16 00:11:23;;;;;;;5.38;4.88;;;5.70;99.90;;;;;;5062134;28;20029;-58
2023/04/16 00:13:48;;;;;;;5.57;5.07;;;5.70;99.90;;;;;;5033418;28;20033;-56
2023/04/16 00:16:14;;;;;;;6.40;5.80;;;5.70;99.90;;;;;;5033426;28;20481;-53
2023/04/16 00:18:41;;;;;;;6.40;5.80;;;5.60;99.90;;;;;;5033441;28;20029;-56
2023/04/16 00:21:07;;;;;;;6.20;5.60;;;5.70;99.90;;;;;;5031899;28;20021;-58
2023/04/16 00:23:32;;;;;;;5.00;4.40;;;5.60;99.90;;;;;;5033382;28;20116;-57
2023/04/16 00:26:01;;;;;;;4.88;4.47;;;5.70;99.90;;;;;;5031832;28;20084;-52
2023/04/16 00:28:26;;;;;;;4.38;3.97;;;5.60;99.90;;;;;;5033242;28;20388;-51
2023/04/16 00:30:53;;;;;;;4.22;3.83;;;5.60;99.90;;;;;;5033252;28;20032;-56
2023/04/16 00:33:18;;;;;;;4.03;3.72;;;5.50;99.90;;;;;;5032879;28;20053;-53
2023/04/16 00:35:45;;;;;;;4.22;3.85;;;5.50;99.90;;;;;;5033186;28;20060;-56
2023/04/16 00:38:11;;;;;;;4.78;4.35;;;5.50;99.90;;;;;;5032933;28;20064;-57
2023/04/16 00:40:37;;;;;;;5.22;4.68;;;5.50;99.90;;;;;;5033070;28;20028;-58
2023/04/16 00:43:03;;;;;;;5.28;4.25;;;5.50;99.90;;;;;;5032922;28;20381;-58
2023/04/16 00:45:28;;;;;;;3.90;3.60;;;5.50;99.90;;;;;;5032971;28;20041;-56
2023/04/16 00:47:55;;;;;;;4.05;3.75;;;5.60;99.90;;;;;;5032607;28;20522;-58
2023/04/16 00:50:22;;;;;;;4.00;3.70;;;5.50;99.90;;;;;;5032820;28;20394;-58
2023/04/16 00:52:48;;;;;;;4.30;3.63;;;5.50;99.90;;;;;;5032811;28;20025;-56
2023/04/16 00:55:16;;;;;;;3.88;3.03;;;5.50;99.90;;;;;;5032308;28;20661;-58
2023/04/16 00:57:42;;;;;;;3.42;3.17;;;5.50;99.90;;;;;;5032926;28;20075;-54
2023/04/16 01:00:08;;;;;;;3.42;3.13;;;5.50;99.90;;;;;;5031316;28;20376;-57
2023/04/16 01:02:35;;;;;;;4.55;3.25;;;5.50;99.90;;;;;;5032612;28;20037;-52
2023/04/16 01:05:04;;;;;;;4.50;4.10;;;5.60;99.90;;;;;;5032635;28;20024;-58
2023/04/16 01:07:30;;;;;;;3.67;3.38;;;5.50;99.90;;;;;;5032350;28;20057;-57
2023/04/16 01:09:56;;;;;;;3.47;3.20;;;5.60;99.90;;;;;;5032530;28;20037;-57
2023/04/16 01:12:22;;;;;;;6.57;4.22;;;5.50;99.90;;;;;;5032241;28;20038;-58
2023/04/16 01:14:47;;;;;;;4.10;3.80;;;5.50;99.90;;;;;;5032488;28;20045;-58
2023/04/16 01:17:14;;;;;;;6.55;3.50;;;5.50;99.90;;;;;;5032097;28;20029;-57
2023/04/16 01:19:40;;;;;;;4.00;3.70;;;5.50;99.90;;;;;;5032265;28;20037;-57
2023/04/16 01:22:05;;;;;;;4.03;3.63;;;5.50;99.90;;;;;;5032087;28;20018;-57
2023/04/16 01:24:31;;;;;;;3.45;3.20;;;5.50;99.90;;;;;;5030732;28;20021;-57
2023/04/16 01:26:58;;;;;;;3.17;2.92;;;5.50;99.90;;;;;;5032445;28;20488;-58
2023/04/16 01:29:24;;;;;;;4.35;3.58;;;5.60;99.90;;;;;;5031911;28;20041;-56
2023/04/16 01:31:50;;;;;;;4.60;3.28;;;5.50;99.90;;;;;;5032200;28;20033;-58
2023/04/16 01:34:15;;;;;;;3.33;3.03;;;5.50;99.90;;;;;;5031813;28;20040;-55
2023/04/16 01:36:41;;;;;;;3.13;2.92;;;5.40;99.90;;;;;;5032062;28;20021;-57
2023/04/16 01:39:10;;;;;;;5.20;3.05;;;5.40;99.90;;;;;;5031889;28;20116;-54
2023/04/16 01:41:36;;;;;;;3.60;3.30;;;5.40;99.90;;;;;;5032214;28;20081;-58
2023/04/16 01:44:02;;;;;;;4.65;3.65;;;5.40;99.90;;;;;;5031981;28;20076;-57
2023/04/16 01:46:31;;;;;;;3.92;3.60;;;5.40;99.90;;;;;;5031728;28;20021;-54
2023/04/16 01:48:57;;;;;;;3.45;3.15;;;5.40;99.90;;;;;;5031943;28;20118;-57
2023/04/16 01:51:23;;;;;;;3.20;2.90;;;5.40;99.90;;;;;;5031281;28;20068;-58
2023/04/16 01:53:49;;;;;;;3.08;2.85;;;5.40;99.90;;;;;;5030543;28;20060;-56
2023/04/16 01:56:35;;;;;;;4.07;2.70;;;5.50;99.90;;;;;;5031477;28;20026;-58
2023/04/16 01:59:00;;;;;;;2.50;2.30;;;5.40;99.90;;;;;;5031506;28;20397;-56
2023/04/16 02:01:26;;;;;;;2.78;2.50;;;5.50;99.90;;;;;;5031178;28;20031;-58
2023/04/16 02:03:52;;;;;;;2.97;2.78;;;5.50;99.90;;;;;;5030281;28;20433;-54
2023/04/16 02:06:18;;;;;;;2.38;2.17;;;5.60;99.90;;;;;;5031207;28;20053;-57
2023/04/16 02:08:43;;;;;;;2.72;2.53;;;5.60;99.90;;;;;;5031501;28;20384;-56
2023/04/16 02:11:09;;;;;;;2.78;2.58;;;5.60;99.90;;;;;;5029866;28;20025;-58
2023/04/16 02:13:35;;;;;;;2.50;2.35;;;5.60;99.90;;;;;;5030992;28;20125;-57
2023/04/16 02:16:01;;;;;;;2.50;2.30;;;5.50;99.90;;;;;;5031252;28;20036;-58
2023/04/16 02:18:27;;;;;;;2.50;2.30;;;5.50;99.90;;;;;;5030987;28;20056;-54
2023/04/16 02:20:56;;;;;;;2.60;2.40;;;5.40;99.90;;;;;;5031343;28;20041;-58
2023/04/16 02:23:22;;;;;;;2.38;2.17;;;5.40;99.90;;;;;;5030996;28;20436;-57
2023/04/16 02:25:47;;;;;;;2.85;2.58;;;5.40;99.90;;;;;;5031084;28;20028;-56
2023/04/16 02:28:15;;;;;;;2.72;2.45;;;5.40;99.90;;;;;;5030914;28;20392;-56
2023/04/16 02:30:41;;;;;;;2.85;2.65;;;5.40;99.90;;;;;;5031014;28;20029;-57
2023/04/16 02:33:09;;;;;;;2.58;2.38;;;5.40;99.90;;;;;;5030605;28;20043;-55
2023/04/16 02:35:36;;;;;;;2.25;2.05;;;5.50;99.90;;;;;;5030571;28;20029;-58
2023/04/16 02:38:03;;;;;;;2.30;2.20;;;5.50;99.90;;;;;;5029658;28;20025;-58
2023/04/16 02:40:29;;;;;;;2.30;2.20;;;5.40;99.90;;;;;;5030656;28;20358;-58
2023/04/16 02:42:55;;;;;;;2.50;2.40;;;5.50;99.90;;;;;;5030861;28;20033;-55
2023/04/16 02:45:21;;;;;;;2.50;2.30;;;5.40;99.90;;;;;;5029168;28;20108;-54
2023/04/16 02:47:48;;;;;;;2.50;2.30;;;5.40;99.90;;;;;;5030797;28;20094;-56
2023/04/16 02:50:13;;;;;;;2.72;2.53;;;5.40;99.90;;;;;;5030434;28;20025;-59
2023/04/16 02:52:39;;;;;;;2.88;2.67;;;5.40;99.90;;;;;;5030728;28;20026;-57
2023/04/16 02:55:05;;;;;;;2.78;2.58;;;5.50;99.90;;;;;;5030766;28;20151;-57
2023/04/16 02:57:31;;;;;;;2.40;2.30;;;5.50;99.90;;;;;;5030454;28;20040;-56
2023/04/16 02:59:57;;;;;;;2.80;2.60;;;5.50;99.90;;;;;;5030541;28;20104;-58
2023/04/16 03:02:22;;;;;;;3.05;2.67;;;5.40;99.90;;;;;;5030164;28;20153;-56
2023/04/16 03:04:48;;;;;;;2.78;2.58;;;5.30;99.90;;;;;;5030603;28;20021;-58
2023/04/16 03:07:13;;;;;;;3.10;2.90;;;5.40;99.90;;;;;;5030377;28;20105;-58
2023/04/16 03:09:39;;;;;;;2.70;2.55;;;5.30;99.90;;;;;;5030505;28;20026;-56
2023/04/16 03:12:05;;;;;;;2.88;2.67;;;5.30;99.90;;;;;;5030728;28;20052;-56
2023/04/16 03:14:31;;;;;;;2.60;2.40;;;5.40;99.90;;;;;;5030612;28;20444;-56
2023/04/16 03:16:57;;;;;;;2.90;2.70;;;5.30;99.90;;;;;;5030147;28;20030;-55
2023/04/16 03:19:23;;;;;;;2.70;2.50;;;5.40;99.90;;;;;;5030026;28;21479;-55
2023/04/16 03:21:48;;;;;;;3.10;2.80;;;5.30;99.90;;;;;;5030347;28;20104;-55
2023/04/16 03:24:14;;;;;;;2.55;2.38;;;5.30;99.90;;;;;;5030444;28;20028;-58
2023/04/16 03:26:40;;;;;;;2.20;2.10;;;5.30;99.90;;;;;;5030258;28;20053;-57
2023/04/16 03:29:06;;;;;;;2.40;2.22;;;5.20;99.90;;;;;;5030040;28;20024;-56
2023/04/16 03:31:32;;;;;;;2.10;2.00;;;5.20;99.90;;;;;;5030492;28;20056;-54
2023/04/16 03:33:57;;;;;;;2.30;2.20;;;5.10;99.90;;;;;;5030206;28;20362;-55
2023/04/16 03:36:25;;;;;;;2.17;2.08;;;5.10;99.90;;;;;;5029882;28;20108;-58
2023/04/16 03:38:50;;;;;;;2.20;2.10;;;5.10;99.90;;;;;;5030148;28;20029;-56
2023/04/16 03:41:16;;;;;;;2.05;1.92;;;5.20;99.90;;;;;;5029876;28;20022;-53
2023/04/16 03:43:42;;;;;;;2.20;2.10;;;5.20;99.90;;;;;;5030180;28;20092;-52
2023/04/16 03:46:07;;;;;;;2.10;2.00;;;5.20;99.90;;;;;;5029906;28;20425;-57
2023/04/16 03:48:33;;;;;;;3.75;2.10;;;5.20;99.90;;;;;;5033771;28;20020;-58
2023/04/16 03:50:59;;;;;;;1.92;1.83;;;5.20;99.90;;;;;;5034087;28;20063;-59
2023/04/16 03:53:25;;;;;;;2.67;2.40;;;5.20;99.90;;;;;;5034217;28;20480;-57
2023/04/16 03:55:51;;;;;;;2.10;2.00;;;5.20;99.90;;;;;;5032323;28;20033;-55
2023/04/16 03:58:17;;;;;;;2.40;2.30;;;5.20;99.90;;;;;;5033642;28;20032;-58
2023/04/16 04:00:43;;;;;;;2.38;2.28;;;5.10;99.90;;;;;;5033824;28;20043;-57
2023/04/16 04:03:10;;;;;;;1.90;1.80;;;5.20;99.90;;;;;;5033281;28;20108;-55
2023/04/16 04:05:40;;;;;;;2.00;1.90;;;5.30;99.90;;;;;;5032171;28;20076;-58
2023/04/16 04:08:06;;;;;;;1.92;1.83;;;5.30;99.90;;;;;;5033308;28;20030;-56
2023/04/16 04:10:35;;;;;;;2.22;2.13;;;5.30;99.90;;;;;;5033717;28;20021;-56
2023/04/16 04:13:02;;;;;;;2.63;2.42;;;5.30;99.90;;;;;;5033378;28;20568;-55
2023/04/16 04:15:28;;;;;;;2.45;2.35;;;5.30;99.90;;;;;;5033452;28;20041;-59
2023/04/16 04:17:54;;;;;;;2.53;2.40;;;5.20;99.90;;;;;;5033595;28;20025;-57
2023/04/16 04:20:23;;;;;;;1.98;1.88;;;5.20;99.90;;;;;;5033172;28;20033;-57
2023/04/16 04:22:51;;;;;;;2.40;2.20;;;5.30;99.90;;;;;;5033471;28;20112;-54
2023/04/16 04:25:26;;;;;;;1.80;1.70;;;5.30;99.90;;;;;;5033195;28;20025;-56
2023/04/16 04:27:52;;;;;;;1.73;1.63;;;5.20;99.90;;;;;;5032352;28;20071;-57
2023/04/16 04:30:17;;;;;;;2.10;2.00;;;5.30;99.90;;;;;;5033140;28;20080;-58
2023/04/16 04:32:43;;;;;;;1.77;1.67;;;5.20;99.90;;;;;;5033438;28;20067;-56
2023/04/16 04:35:09;;;;;;;1.58;1.58;;;5.30;99.90;;;;;;5033150;28;20326;-55
2023/04/16 04:37:34;;;;;;;3.95;1.90;;;5.40;99.90;;;;;;5031908;28;20040;-58
2023/04/16 04:40:00;;;;;;;1.90;1.80;;;5.40;99.90;;;;;;5032861;28;20052;-58
2023/04/16 04:42:26;;;;;;;2.00;1.90;;;5.40;99.90;;;;;;5032848;28;20120;-57
2023/04/16 04:44:51;;;;;;;2.17;2.00;;;5.40;99.90;;;;;;5033314;28;20430;-57
2023/04/16 04:47:17;;;;;;;3.95;1.77;;;5.50;99.90;;;;;;5032800;28;20101;-57
2023/04/16 04:49:43;;;;;;;2.40;2.30;;;5.50;99.90;;;;;;5033165;28;20100;-58
2023/04/16 04:52:08;;;;;;;2.78;2.50;;;5.50;99.90;;;;;;5032635;28;20043;-54
2023/04/16 04:54:34;;;;;;;2.85;2.60;;;5.60;99.90;;;;;;5032965;28;20021;-56
2023/04/16 04:57:00;;;;;;;3.25;2.78;;;5.60;99.90;;;;;;5032596;28;20037;-55
2023/04/16 04:59:25;;;;;;;2.85;2.65;;;5.60;99.90;;;;;;5030937;28;20033;-57
2023/04/16 05:01:51;;;;;;;3.28;3.05;;;5.60;99.90;;;;;;5032822;28;20040;-58
2023/04/16 05:04:17;;;;;;;6.75;3.25;;;5.60;99.90;;;;;;5032379;28;20075;-58
2023/04/16 05:06:43;;;;;;;3.35;3.13;;;5.60;99.90;;;;;;5032783;28;20029;-58
2023/04/16 05:09:10;;;;;;;4.18;3.40;;;5.60;99.90;;;;;;5032150;28;20040;-58
2023/04/16 05:11:37;;;;;;;3.63;3.33;;;5.70;99.90;;;;;;5032635;28;20830;-56
2023/04/16 05:14:03;;;;;;;4.05;3.47;;;5.70;99.90;;;;;;5031147;28;20199;-57
2023/04/16 05:16:28;;;;;;;4.93;4.53;;;5.70;99.90;;;;;;5032364;28;20516;-58
2023/04/16 05:18:54;;;;;;;5.00;3.83;;;5.80;99.90;;;;;;5032665;28;20032;-57
2023/04/16 05:21:21;;;;;;;5.28;4.78;;;5.80;99.90;;;;;;5031943;28;20029;-58
2023/04/16 05:23:46;;;;;;;5.00;4.60;;;5.90;99.90;;;;;;5030889;28;20542;-58
2023/04/16 05:26:12;;;;;;;5.95;5.35;;;5.90;99.90;;;;;;5032069;28;20120;-51
2023/04/16 05:28:38;;;;;;;7.35;5.35;;;5.90;99.90;;;;;;5032209;28;20025;-55
2023/04/16 05:31:03;;;;;;;6.05;5.45;;;5.90;99.90;;;;;;5032093;28;20037;-57
2023/04/16 05:33:29;;;;;;;5.65;5.15;;;6.00;99.90;;;;;;5032023;28;20029;-57
2023/04/16 05:35:55;;;;;;;5.70;5.20;;;6.00;99.90;;;;;;5032072;28;20018;-58
2023/04/16 05:38:20;;;;;;;5.22;4.75;;;6.00;99.90;;;;;;5031526;28;20041;-57
2023/04/16 05:40:46;;;;;;;6.15;5.65;;;6.00;99.90;;;;;;5031963;28;20032;-57
2023/04/16 05:43:12;;;;;;;5.57;5.07;;;6.00;99.90;;;;;;5032003;28;20095;-57
2023/04/16 05:45:39;;;;;;;5.65;4.90;;;6.00;99.90;;;;;;5031753;28;20032;-53
2023/04/16 05:48:07;;;;;;;5.18;4.75;;;6.00;99.90;;;;;;5031660;28;20021;-58
2023/04/16 05:50:33;;;;;;;5.72;5.03;;;6.00;99.90;;;;;;5031695;28;20021;-54
2023/04/16 05:52:59;;;;;;;5.32;4.88;;;6.00;99.90;;;;;;5031644;28;20079;-54
2023/04/16 05:55:25;;;;;;;5.60;5.07;;;5.90;99.90;;;;;;5031440;28;20033;-59
2023/04/16 05:57:50;;;;;;;5.60;5.07;;;5.90;99.90;;;;;;5030459;28;20068;-59
2023/04/16 06:00:16;;;;;;;6.00;5.40;;;5.90;99.90;;;;;;5031388;28;20032;-57
2023/04/16 06:02:42;;;;;;;6.15;5.55;;;5.90;99.90;;;;;;5031617;28;20029;-57
2023/04/16 06:05:07;;;;;;;6.80;5.82;;;5.90;99.90;;;;;;5031334;28;20021;-57
2023/04/16 06:07:33;;;;;;;6.53;5.13;;;5.90;99.90;;;;;;5031241;28;20033;-60
2023/04/16 06:09:59;;;;;;;5.93;5.32;;;5.80;99.90;;;;;;5030765;28;20026;-57
2023/04/16 06:12:24;;;;;;;6.15;5.55;;;5.80;99.90;;;;;;5029837;28;20499;-56
2023/04/16 06:14:50;;;;;;;6.53;5.90;;;5.80;99.90;;;;;;5031635;28;20042;-55
2023/04/16 06:17:16;;;;;;;6.93;5.57;;;5.90;99.90;;;;;;5031086;28;20033;-58
2023/04/16 06:19:41;;;;;;;8.25;6.07;;;5.80;99.90;;;;;;5031252;28;20055;-60
2023/04/16 06:22:07;;;;;;;5.85;5.35;;;5.80;99.90;;;;;;5030833;28;20508;-59
2023/04/16 06:24:33;;;;;;;7.47;6.43;;;5.80;99.90;;;;;;5031135;28;20457;-55
2023/04/16 06:26:59;;;;;;;8.68;7.28;;;5.80;99.90;;;;;;5029792;28;20026;-57
2023/04/16 06:29:25;;;;;;;7.85;6.40;;;5.80;99.90;;;;;;5030794;28;20419;-57
2023/04/16 06:31:50;;;;;;;7.20;6.50;;;5.90;99.90;;;;;;5031415;28;20083;-57
2023/04/16 06:34:16;;;;;;;9.93;6.85;;;5.90;99.90;;;;;;5029319;28;20473;-55
2023/04/16 06:36:42;;;;;;;7.35;6.65;;;5.90;99.90;;;;;;5030961;28;20079;-58
2023/04/16 06:39:07;;;;;;;7.18;6.43;;;6.00;99.90;;;;;;5029284;28;20017;-58
2023/04/16 06:41:33;;;;;;;10.05;7.22;;;6.00;99.90;;;;;;5031318;28;20692;-56
2023/04/16 06:43:59;;;;;;;7.85;6.53;;;6.00;99.90;;;;;;5030618;28;20025;-55
2023/04/16 06:46:24;;;;;;;7.00;6.30;;;5.90;99.90;;;;;;5030673;28;20029;-57
2023/04/16 06:48:50;;;;;;;8.52;6.93;;;6.00;99.90;;;;;;5031212;28;20075;-55
2023/04/16 06:51:16;;;;;;;10.80;7.15;;;6.00;99.90;;;;;;5030251;28;20167;-55
2023/04/16 06:53:41;;;;;;;7.50;6.82;;;6.10;99.90;;;;;;5030756;28;20079;-59
2023/04/16 06:56:07;;;;;;;9.90;7.50;;;6.00;99.90;;;;;;5029094;28;20029;-55
2023/04/16 06:58:36;;;;;;;7.63;6.82;;;6.10;99.90;;;;;;5030557;28;20064;-58
2023/04/16 07:01:01;;;;;;;8.02;7.20;;;6.10;99.90;;;;;;5029242;28;20022;-59
2023/04/16 07:03:27;;;;;;;8.25;6.65;;;6.20;99.90;;;;;;5030704;28;20094;-57
2023/04/16 07:05:53;;;;;;;7.93;6.93;;;6.10;99.90;;;;;;5030435;28;20524;-56
2023/04/16 07:08:18;;;;;;;7.55;6.82;;;6.20;99.90;;;;;;5030208;28;20488;-56
2023/04/16 07:10:44;;;;;;;8.80;7.40;;;6.20;99.90;;;;;;5030534;28;20028;-57
2023/04/16 07:13:10;;;;;;;10.00;7.40;;;6.30;99.90;;;;;;5030203;28;20392;-58
2023/04/16 07:15:35;;;;;;;8.73;7.82;;;6.30;99.90;;;;;;5028971;28;20528;-58
2023/04/16 07:18:01;;;;;;;8.27;7.28;;;6.30;99.90;;;;;;5030085;28;20032;-58
2023/04/16 07:20:27;;;;;;;8.23;7.07;;;6.30;99.90;;;;;;5030794;28;20099;-58
2023/04/16 07:22:52;;;;;;;8.57;7.68;;;6.30;99.90;;;;;;5037032;28;20071;-58
2023/04/16 07:25:18;;;;;;;9.70;8.52;;;6.40;99.90;;;;;;5036661;28;20028;-56
2023/04/16 07:27:44;;;;;;;10.73;7.93;;;6.40;99.90;;;;;;5036847;28;20025;-58
2023/04/16 07:30:10;;;;;;;7.60;6.90;;;6.50;99.90;;;;;;5035513;28;20025;-56
2023/04/16 07:32:36;;;;;;;10.43;8.70;;;6.40;99.90;;;;;;5036809;28;20021;-59
2023/04/16 07:35:02;;;;;;;8.88;7.97;;;6.30;99.90;;;;;;5036889;28;20469;-59
2023/04/16 07:37:28;;;;;;;9.95;8.02;;;6.30;99.90;;;;;;5036698;28;20120;-59
2023/04/16 07:39:56;;;;;;;8.98;7.80;;;6.30;99.90;;;;;;5036780;28;20097;-54
2023/04/16 07:42:22;;;;;;;8.05;7.25;;;6.40;99.90;;;;;;5036539;28;20026;-57
2023/04/16 07:44:47;;;;;;;9.02;8.10;;;6.50;99.90;;;;;;5036856;28;20041;-57
2023/04/16 07:47:28;;;;;;;8.35;7.55;;;6.50;99.90;;;;;;5036407;28;20037;-58
2023/04/16 07:49:54;;;;;;;7.22;6.53;;;6.60;99.90;;;;;;5036573;28;20096;-58
2023/04/16 07:52:20;;;;;;;7.10;6.35;;;6.70;99.90;;;;;;5037018;28;20535;-58
2023/04/16 07:54:46;;;;;;;8.05;6.10;;;6.60;99.90;;;;;;5037726;28;20056;-55
2023/04/16 07:57:11;;;;;;;7.00;6.30;;;6.80;99.90;;;;;;5036514;28;20103;-55
2023/04/16 07:59:37;;;;;;;7.03;6.03;;;6.80;99.90;;;;;;5036506;28;20083;-58
2023/04/16 08:02:03;;;;;;;7.30;6.55;;;6.90;99.90;;;;;;5036646;28;20021;-56
2023/04/16 08:04:29;;;;;;;6.70;6.05;;;6.80;99.90;;;;;;5036421;28;20384;-59
2023/04/16 08:06:54;;;;;;;7.03;6.40;;;6.80;99.90;;;;;;5036686;28;20025;-59
2023/04/16 08:09:22;;;;;;;5.80;5.20;;;7.00;99.90;;;;;;5036522;28;20068;-59
2023/04/16 08:11:49;;;;;;;6.10;5.55;;;7.20;99.90;;;;;;5036382;28;20056;-58
2023/04/16 08:14:15;;;;;;;6.28;5.20;;;7.20;99.90;;;;;;5035072;28;20072;-59
2023/04/16 08:16:41;;;;;;;5.30;4.90;;;7.10;99.90;;;;;;5036441;28;20025;-58
2023/04/16 08:19:19;;;;;;;4.78;4.38;;;7.30;99.90;;;;;;5036318;28;20545;-58
2023/04/16 08:21:45;;;;;;;6.13;5.05;;;7.20;99.90;;;;;;5036504;28;20032;-58
2023/04/16 08:24:11;;;;;;;5.78;5.28;;;7.20;99.90;;;;;;5036123;28;20047;-59
2023/04/16 08:26:37;;;;;;;5.07;4.57;;;7.40;99.90;;;;;;5036735;28;20120;-55
2023/04/16 08:29:02;;;;;;;5.38;4.88;;;7.60;99.90;;;;;;5036204;28;20049;-58
2023/04/16 08:31:28;;;;;;;5.40;4.90;;;7.60;99.90;;;;;;5036010;28;20609;-58
2023/04/16 08:33:54;;;;;;;4.95;4.18;;;7.70;99.90;;;;;;5032633;28;20067;-59
2023/04/16 08:36:19;;;;;;;8.75;6.47;;;8.00;99.90;;;;;;5033227;28;20029;-59
2023/04/16 08:38:45;;;;;;;11.50;8.27;;;8.00;99.90;;;;;;5032566;28;20100;-58
2023/04/16 08:41:12;;;;;;;10.25;9.15;;;8.10;99.90;;;;;;5033105;28;20077;-58
2023/04/16 08:43:43;;;;;;;26.90;14.85;;;7.90;99.90;;;;;;5033050;28;20025;-59
2023/04/16 08:46:09;;;;;;;4.82;4.30;;;7.60;99.90;;;;;;5032652;28;20013;-58
2023/04/16 08:48:36;;;;;;;29.52;13.38;;;7.70;99.90;;;;;;5032992;28;20088;-59
2023/04/16 08:51:02;;;;;;;4.55;4.15;;;7.70;99.90;;;;;;5032934;28;20071;-57
2023/04/16 08:53:52;;;;;;;5.60;4.90;;;7.60;99.90;;;;;;5032815;28;20053;-58
2023/04/16 08:56:21;;;;;;;9.32;6.60;;;7.50;99.90;;;;;;5032486;28;20017;-58
2023/04/16 08:58:48;;;;;;;6.55;5.90;;;7.50;99.90;;;;;;5030489;28;20029;-58
2023/04/16 09:01:16;;;;;;;7.15;6.18;;;7.50;99.90;;;;;;5032573;28;20041;-59
2023/04/16 09:03:45;;;;;;;4.70;4.30;;;7.30;99.90;;;;;;5049588;28;20021;-58
2023/04/16 09:06:12;;;;;;;5.38;4.53;;;7.40;99.90;;;;;;5051192;28;20027;-58
2023/04/16 09:08:39;;;;;;;5.30;4.72;;;7.40;99.90;;;;;;5052304;28;20036;-59
2023/04/16 09:11:05;;;;;;;5.28;4.78;;;7.40;99.90;;;;;;5052246;28;20354;-58
2023/04/16 09:13:31;;;;;;;5.22;4.82;;;7.30;99.90;;;;;;5052157;28;20041;-59
2023/04/16 09:15:57;;;;;;;6.80;6.05;;;7.40;99.90;;;;;;5050960;28;20079;-58
2023/04/16 09:18:23;;;;;;;6.00;5.22;;;7.40;99.90;;;;;;5051741;28;20605;-58
2023/04/16 09:20:50;;;;;;;15.13;11.27;;;7.50;99.90;;;;;;5052179;28;20050;-59
2023/04/16 09:23:16;;;;;;;6.25;5.65;;;7.50;99.90;;;;;;5051851;28;20090;-58
2023/04/16 09:25:42;;;;;;;8.70;7.80;;;7.40;99.90;;;;;;5052136;28;20104;-58
2023/04/16 09:28:09;;;;;;;12.10;9.02;;;7.60;99.90;;;;;;5051803;28;20442;-57
2023/04/16 09:30:36;;;;;;;6.45;5.85;;;7.70;99.90;;;;;;5051986;28;20048;-58
2023/04/16 09:33:12;;;;;;;5.68;5.18;;;7.70;99.90;;;;;;5050946;28;20498;-58
2023/04/16 09:35:48;;;;;;;6.28;5.43;;;7.90;99.90;;;;;;5052042;28;20031;-58
2023/04/16 09:38:15;;;;;;;7.95;6.25;;;8.00;99.90;;;;;;5051704;28;20466;-56
2023/04/16 09:40:41;;;;;;;5.45;4.95;;;7.80;99.90;;;;;;5052009;28;20116;-58
2023/04/16 09:43:17;;;;;;;5.45;4.90;;;8.00;99.90;;;;;;5051582;28;20435;-58
2023/04/16 09:45:50;;;;;;;5.45;4.53;;;8.10;99.90;;;;;;5050432;28;20044;-56
2023/04/16 09:48:26;;;;;;;5.25;4.75;;;8.10;99.90;;;;;;5050386;28;20029;-58
2023/04/16 09:50:52;;;;;;;10.98;5.55;;;8.00;99.90;;;;;;5051874;28;20025;-57
2023/04/16 09:53:30;;;;;;;5.60;5.10;;;8.10;99.90;;;;;;5051557;28;20021;-58
2023/04/16 09:56:01;;;;;;;5.55;5.05;;;7.80;99.90;;;;;;5050294;28;20033;-56
2023/04/16 09:58:28;;;;;;;5.97;5.30;;;8.00;99.90;;;;;;5051187;28;20024;-58
2023/04/16 10:01:06;;;;;;;5.43;4.63;;;8.10;99.90;;;;;;5051562;28;20021;-58
2023/04/16 10:03:33;;;;;;;4.60;4.20;;;8.40;99.90;;;;;;5051548;28;20495;-58
2023/04/16 10:06:18;;;;;;;3.88;3.58;;;8.70;99.90;;;;;;5050022;28;20028;-59
2023/04/16 10:08:47;;;;;;;4.05;3.75;;;9.00;99.90;;;;;;5051216;28;20029;-54
2023/04/16 10:11:13;;;;;;;3.75;3.40;;;9.10;99.90;;;;;;5051276;28;20419;-59
2023/04/16 10:13:39;;;;;;;5.05;4.60;;;8.80;99.90;;;;;;5051375;28;20053;-59
2023/04/16 10:16:06;;;;;;;4.53;4.15;;;8.40;99.90;;;;;;5049829;28;20043;-58
2023/04/16 10:18:32;;;;;;;5.88;5.30;;;8.20;99.90;;;;;;5051000;28;20025;-58
2023/04/16 10:20:58;;;;;;;4.72;4.30;;;8.40;99.90;;;;;;5051450;28;20021;-58
2023/04/16 10:23:24;;;;;;;4.40;4.00;;;8.30;99.90;;;;;;5050989;28;20036;-59
2023/04/16 10:25:51;;;;;;;5.10;4.68;;;8.50;99.90;;;;;;5050914;28;20021;-59
2023/04/16 10:28:17;;;;;;;4.50;4.13;;;8.60;99.90;;;;;;5050892;28;20032;-58
2023/04/16 10:30:51;;;;;;;4.63;4.22;;;8.70;99.90;;;;;;5051318;28;20372;-58
2023/04/16 10:33:19;;;;;;;4.82;4.40;;;8.80;99.90;;;;;;5050638;28;20357;-59
2023/04/16 10:35:45;;;;;;;4.63;4.22;;;8.60;99.90;;;;;;5051231;28;20025;-59
2023/04/16 10:38:21;;;;;;;4.88;4.47;;;8.80;99.90;;;;;;5050640;28;20428;-58
2023/04/16 10:40:46;;;;;;;6.07;5.22;;;9.20;99.90;;;;;;5050708;28;20059;-58
2023/04/16 10:43:17;;;;;;;6.05;5.40;;;8.90;99.90;;;;;;5050435;28;20021;-59
2023/04/16 10:45:42;;;;;;;6.38;5.35;;;9.00;99.90;;;;;;5050786;28;20090;-59
2023/04/16 10:48:08;;;;;;;7.70;5.25;;;9.00;99.90;;;;;;5050665;28;20088;-59
2023/04/16 10:50:37;;;;;;;8.10;6.22;;;8.70;99.90;;;;;;5050647;28;20423;-59
2023/04/16 10:53:19;;;;;;;15.60;10.45;;;8.60;99.90;;;;;;5050914;28;20036;-57
2023/04/16 10:56:03;;;;;;;13.05;9.38;;;8.80;99.90;;;;;;5048907;28;20021;-59
2023/04/16 10:58:30;;;;;;;5.15;4.72;;;8.80;99.90;;;;;;5050320;28;20401;-59
2023/04/16 11:01:00;;;;;;;5.30;4.80;;;9.00;99.90;;;;;;5049119;28;20025;-59
2023/04/16 11:03:30;;;;;;;5.45;4.88;;;9.00;31.50;;;;;;5050239;28;20067;-59
2023/04/16 11:06:24;;;;;;;4.70;4.30;;;9.00;20.60;;;;;;5050378;28;20043;-58
2023/04/16 11:08:51;;;;;;;4.05;3.75;;;9.50;1.00;;;;;;5049579;28;20515;-58
2023/04/16 11:11:17;;;;;;;3.83;3.53;;;9.50;1.00;;;;;;5050028;28;20025;-56
2023/04/16 11:13:44;;;;;;;7.20;6.13;;;9.80;1.00;;;;;;5050229;28;20052;-58
2023/04/16 11:16:14;;;;;;;4.30;3.90;;;10.00;1.00;;;;;;5049868;28;20492;-58
2023/04/16 11:18:40;;;;;;;4.50;4.10;;;9.60;1.00;;;;;;5050475;28;20036;-59
2023/04/16 11:21:11;;;;;;;5.55;5.10;;;9.50;1.00;;;;;;5050462;28;20017;-59
2023/04/16 11:23:47;;;;;;;5.35;4.70;;;9.30;1.00;;;;;;5050343;28;20024;-59
2023/04/16 11:26:21;;;;;;;5.07;4.57;;;9.70;1.00;;;;;;5050063;28;20013;-59
2023/04/16 11:28:47;;;;;;;3.70;3.40;;;9.90;1.00;;;;;;5050308;28;20025;-59
2023/04/16 11:31:12;;;;;;;5.13;3.80;;;10.00;1.00;;;;;;5048831;28;20426;-60
2023/04/16 11:33:38;;;;;;;3.95;3.65;;;10.20;1.00;;;;;;5050213;28;20029;-59
2023/04/16 11:36:04;;;;;;;5.45;4.95;;;10.10;1.00;;;;;;5049885;28;20086;-59
2023/04/16 11:38:37;;;;;;;5.07;3.88;;;10.10;1.00;;;;;;5050132;28;20029;-59
2023/04/16 11:41:03;;;;;;;4.55;4.15;;;10.20;1.00;;;;;;5050376;28;20376;-57
2023/04/16 11:43:28;;;;;;;4.80;4.40;;;10.10;1.00;;;;;;5050011;28;20020;-58
2023/04/16 11:46:02;;;;;;;3.28;2.97;;;10.30;1.00;;;;;;5050252;28;20041;-59
2023/04/16 11:48:54;;;;;;;3.65;3.35;;;10.10;1.00;;;;;;5050029;28;20486;-59
2023/04/16 11:51:21;;;;;;;5.65;4.10;;;10.40;1.00;;;;;;5049813;28;20487;-58
2023/04/16 11:53:51;;;;;;;4.70;4.13;;;10.50;1.00;;;;;;5048709;28;20476;-58
2023/04/16 11:56:28;;;;;;;3.50;3.20;;;11.00;1.00;;;;;;5049656;28;20571;-55
2023/04/16 11:59:11;;;;;;;5.47;4.43;;;10.80;99.90;;;;;;5049906;28;20028;-58
2023/04/16 12:01:38;;;;;;;5.93;3.45;;;10.80;99.90;;;;;;5048694;28;20049;-58
2023/04/16 12:04:04;;;;;;;3.30;3.00;;;10.60;99.90;;;;;;5049562;28;20391;-59
2023/04/16 12:06:31;;;;;;;3.75;3.45;;;10.70;99.90;;;;;;5050017;28;20036;-57
2023/04/16 12:08:58;;;;;;;3.20;2.90;;;10.80;99.90;;;;;;5052553;28;20025;-59
2023/04/16 12:11:39;;;;;;;3.13;2.85;;;11.10;1.00;;;;;;5053396;28;20083;-57
2023/04/16 12:14:10;;;;;;;3.15;2.85;;;11.30;1.00;;;;;;5053176;28;20072;-56
2023/04/16 12:16:35;;;;;;;3.50;3.20;;;11.70;82.80;;;;;;5053541;28;20025;-59
2023/04/16 12:19:02;;;;;;;3.58;3.30;;;11.70;1.00;;;;;;5052142;28;20033;-57
2023/04/16 12:21:47;;;;;;;5.32;3.70;;;11.50;1.00;;;;;;5053422;28;20028;-58
2023/04/16 12:24:16;;;;;;;4.45;4.05;;;11.10;1.00;;;;;;5053001;28;20022;-59
2023/04/16 12:26:47;;;;;;;4.38;3.85;;;11.10;99.90;;;;;;5053380;28;20074;-57
2023/04/16 12:29:26;;;;;;;3.58;3.22;;;10.80;99.90;;;;;;5053080;28;20025;-59
2023/04/16 12:31:53;;;;;;;2.90;2.60;;;10.90;99.90;;;;;;5054002;28;20109;-59
2023/04/16 12:34:20;;;;;;;4.10;3.70;;;10.90;1.00;;;;;;5053175;28;20029;-58
2023/04/16 12:36:47;;;;;;;2.88;2.67;;;10.80;99.90;;;;;;5053338;28;20083;-56
2023/04/16 12:39:14;;;;;;;3.95;3.55;;;11.20;99.90;;;;;;5052461;28;20025;-58
2023/04/16 12:41:42;;;;;;;2.95;2.75;;;11.40;99.90;;;;;;5053086;28;20392;-59
2023/04/16 12:44:15;;;;;;;5.15;3.80;;;11.30;99.90;;;;;;5053047;28;20017;-58
2023/04/16 12:46:41;;;;;;;9.05;5.95;;;11.20;99.90;;;;;;5051527;28;20028;-58
2023/04/16 12:49:10;;;;;;;9.82;6.65;;;11.10;99.90;;;;;;5051457;28;20489;-58
2023/04/16 12:51:37;;;;;;;4.25;3.67;;;11.10;99.90;;;;;;5053030;28;20384;-58
2023/04/16 12:54:06;;;;;;;4.50;4.07;;;11.00;99.90;;;;;;5052477;28;20028;-59
2023/04/16 12:56:32;;;;;;;4.18;3.72;;;10.90;99.90;;;;;;5052941;28;20167;-58